McCook, NE

1:05 PM CDT on September 16, 2014 (GMT -0500)
McCook Municipal | Change Station
CLOSE
Current Station
Airport
Location: McCook,
Elevation: 2579 ft
Nearby Weather Stations

Elev 2579 ft 40.20 °N, 100.59 °W | Updated 12 minutes ago

Overcast
Overcast
69 °F
Feels Like 69 °F
N
17
Wind Variable Wind from South
Gusts 24 mph

Today
High -- | Low -- °F
--% Chance of Precip.
Yesterday
High -- | Low -- °F
Precip. -- in
7:24 AM 7:49 PM
Last Quarter, 43% visible
Pressure 30.06 in
Visibility 10.0 miles
Clouds Mostly Cloudy 2500 ft
Dew Point 55 °F
Humidity 61%
Rainfall 0.00 in
Snow Depth Not available.
UV 4 out of 12
Pollen 5.50 out of 12
Air Quality Not available.
Flu Activity Not available.
METAR KMCK 161753Z AUTO 18015G21KT 10SM BKN025 21/13 A3008 RMK AO2 SLP177 T02060128 10206 20100 58021

More Conditions Fewer Conditions

Pressure 30.06 in
Visibility 10.0 miles
Clouds Mostly Cloudy 2500 ft
Dew Point 55 °F
Humidity 61%
Rainfall 0.00 in
Snow Depth Not available.
UV 4 out of 12
Pollen 5.50 out of 12
Air Quality Not available.
Flu Activity Not available.
METAR KMCK 161753Z AUTO 18015G21KT 10SM BKN025 21/13 A3008 RMK AO2 SLP177 T02060128 10206 20100 58021

More Conditions Fewer Conditions

10-Day Weather Forecast

Almanac

Astronomy

Sep. 16, 2014 Rise Set
Actual Time 7:24 AM CDT 7:49 PM CDT
Civil Twilight 6:57 AM CDT 8:16 PM CDT
Nautical Twilight 6:25 AM CDT 8:48 PM CDT
Astronomical Twilight 5:52 AM CDT 9:21 PM CDT
Moon 12:35 AM CDT 3:15 PM CDT
Length of Visible Light 13h 19m
Length of Day
12h 25m
Tomorrow will be 2m 37s shorter.
Last Quarter, 43% of the Moon is Illuminated
Today
Last Quarter
Sep 24
New
Oct 1
First Quarter
Oct 8
Full
Oct 15
Last Quarter

Today's Extremes

State Highs State Lows

Community

WunderPhotos

Upload Photos

1,753,848 photos uploaded!

Nearby

Snow Depth

Station Depth Elevation
No new snow has been reported.

Earthquake Activity

City Distance Mag. Time & Date
No recent earthquake activity has been reported nearby.
Minimum magnitude displayed is 2.5.

Coastal Water Temperatures

Place Temperature
No Stations Reporting

Nearby Weather Stations